Anita, Iowa
Current Conditions -  °F | °C
As of 12:55 AM on Thursday 27 Nov 2014 (Local Time) from KAIO Reporting Station
Overcast Overcast  
Wind Chill:   Ceiling: 1200
Heat Index: 19°   Visibility: 10mi
Dew Point: 14°   Wind: 16mph
Humidity: 80%   Direction: 330°NNW
Pressure: 30.44"   Gusts: NA
Location:  41.45°N, 94.76°W
Report Text: KAIO 270655Z AUTO 33014KT 10SM BKN012 OVC070 M07/M10 A3044 RMK AO2
Loading
Personal Weather Stations






























Interactive Weather Map New forecast layout! Learn more

10-Day Weather Forecast

Advertisements
Track Severe Weather on mobile